Arklow Wind — EIKZ — position and weather

sailwx.info

Track history (hours):
 
Tides and Currents Weather Stations Pressure Air Temp Water Temp Dewpoint Dewpoint Depression Visibility Wind Speed Wind Dir Waves Ship Positions

Arklow Wind

Last reported at 2014-Jul-23 04:11 UTC. Time now 2014-Jul-24 20:08 UTC.
Position N 40°25' E 029°05'.

Length 136 m; draft 6.8 m.

Type: Cargo ship. MMSI: 250506000.

Date/timePositionNaut miles runAvg speedWind from/ knotsBaromVisibWave heightAir tempDewpointWater temp
2014-Jul-23 04:11N 40°25' E 029°05'0 0.0
2014-Jul-23 03:05N 40°25' E 029°05'  
2014-Jul-14 21:32N 38°39' E 025°50'2611.0
2014-Jul-14 19:12N 38°22' E 025°26'711.2
2014-Jul-14 18:33N 38°18' E 025°17'1311.7
2014-Jul-14 17:25N 38°12' E 025°03'3611.1
2014-Jul-14 14:11N 37°46' E 024°32'711.7
2014-Jul-14 13:33N 37°39' E 024°28'1411.6
2014-Jul-14 12:19N 37°27' E 024°18'2111.0
2014-Jul-14 10:24N 37°10' E 024°02'910.7
2014-Jul-14 09:33N 37°03' E 023°55'1211.6
2014-Jul-14 08:33N 36°54' E 023°46'1211.5
2014-Jul-14 07:33N 36°45' E 023°37'1312.0
2014-Jul-14 06:27N 36°34' E 023°27'  
Track history (hours):
 
Tides and Currents Weather Stations Pressure Air Temp Water Temp Dewpoint Dewpoint Depression Visibility Wind Speed Wind Dir Waves Ship Positions

Arklow Wind

Last reported at 2014-Jul-23 04:11 UTC. Time now 2014-Jul-24 20:08 UTC.
Position N 40°25' E 029°05'.

Length 136 m; draft 6.8 m.

Type: Cargo ship. MMSI: 250506000.

Date/timePositionNaut miles runAvg speedWind from/ knotsBaromVisibWave heightAir tempDewpointWater temp
2014-Jul-23 04:11N 40°25' E 029°05'0 0.0
2014-Jul-23 03:05N 40°25' E 029°05'  
2014-Jul-14 21:32N 38°39' E 025°50'2611.0
2014-Jul-14 19:12N 38°22' E 025°26'711.2
2014-Jul-14 18:33N 38°18' E 025°17'1311.7
2014-Jul-14 17:25N 38°12' E 025°03'3611.1
2014-Jul-14 14:11N 37°46' E 024°32'711.7
2014-Jul-14 13:33N 37°39' E 024°28'1411.6
2014-Jul-14 12:19N 37°27' E 024°18'2111.0
2014-Jul-14 10:24N 37°10' E 024°02'910.7
2014-Jul-14 09:33N 37°03' E 023°55'1211.6
2014-Jul-14 08:33N 36°54' E 023°46'1211.5
2014-Jul-14 07:33N 36°45' E 023°37'1312.0
2014-Jul-14 06:27N 36°34' E 023°27'  

Dump ship's entire track history